Time;durP1;ratioP1;P1;durP2;ratioP2;P2;SDS_P1;SDS_P2;PMS_P1;PMS_P2;Temp;Humidity;BMP_temperature;BMP_pressure;BME280_temperature;BME280_humidity;BME280_pressure;Samples;Min_cycle;Max_cycle;Signal;HPM_P1;HPM_P2
2021/12/29 00:00:38;;;;;;;51.07;16.77;;;;;;;-8.23;63.39;100125.53;5017032;28;20070;-71
2021/12/29 00:03:05;;;;;;;45.10;15.03;;;;;;;-8.29;63.80;100124.28;5024939;28;20053;-72
2021/12/29 00:05:32;;;;;;;51.03;16.13;;;;;;;-8.30;63.95;100121.75;5010630;28;20049;-69
2021/12/29 00:07:58;;;;;;;46.90;16.23;;;;;;;-8.32;63.50;100119.25;5030965;28;20144;-70
2021/12/29 00:10:24;;;;;;;44.27;15.93;;;;;;;-8.35;63.28;100116.06;5003385;28;20053;-69
2021/12/29 00:12:53;;;;;;;50.27;16.93;;;;;;;-8.33;63.27;100116.75;5018662;28;20049;-71
2021/12/29 00:15:25;;;;;;;55.17;17.90;;;;;;;-8.35;63.22;100126.66;5036781;28;20045;-70
2021/12/29 00:17:52;;;;;;;50.40;17.90;;;;;;;-8.34;63.09;100129.19;5038498;28;20456;-71
2021/12/29 00:20:22;;;;;;;51.70;18.03;;;;;;;-8.32;63.21;100129.03;5018140;28;20136;-71
2021/12/29 00:22:49;;;;;;;52.03;18.13;;;;;;;-8.29;63.14;100120.78;5018832;28;20052;-71
2021/12/29 00:25:15;;;;;;;50.58;18.00;;;;;;;-8.27;63.16;100122.31;5027577;28;20552;-71
2021/12/29 00:27:42;;;;;;;47.87;15.83;;;;;;;-8.32;63.24;100116.59;5030273;28;20414;-69
2021/12/29 00:30:12;;;;;;;52.23;17.00;;;;;;;-8.34;63.00;100117.72;5038838;28;20237;-71
2021/12/29 00:32:55;;;;;;;41.10;14.03;;;;;;;-8.37;63.00;100113.53;5021645;28;20042;-72
2021/12/29 00:35:41;;;;;;;43.57;14.87;;;;;;;-8.46;62.82;100112.56;5040111;28;20163;-70
2021/12/29 00:38:26;;;;;;;49.10;14.40;;;;;;;-8.46;63.13;100120.53;5021940;28;20460;-72
2021/12/29 00:41:12;;;;;;;40.17;13.77;;;;;;;-8.52;63.15;100115.84;5022627;28;20044;-71
2021/12/29 00:43:56;;;;;;;60.17;14.63;;;;;;;-8.52;62.83;100122.94;5013505;28;20051;-69
2021/12/29 00:46:43;;;;;;;35.93;13.67;;;;;;;-8.58;63.01;100119.06;5013322;28;20513;-71
2021/12/29 00:49:09;;;;;;;36.78;13.50;;;;;;;-8.57;62.93;100121.56;5018402;28;20053;-72
2021/12/29 00:51:36;;;;;;;38.30;13.63;;;;;;;-8.49;62.68;100130.63;5028955;28;20049;-68
2021/12/29 00:54:03;;;;;;;44.70;17.08;;;;;;;-8.46;62.31;100127.66;5011260;28;20080;-72
2021/12/29 00:56:29;;;;;;;89.90;32.97;;;;;;;-8.56;62.57;100122.41;5005659;28;20590;-72
2021/12/29 00:58:56;;;;;;;99.43;34.23;;;;;;;-8.51;62.28;100121.97;5020757;28;20449;-70
2021/12/29 01:01:21;;;;;;;82.13;27.33;;;;;;;-8.63;62.19;100116.84;5017405;28;20060;-69
2021/12/29 01:03:49;;;;;;;61.43;22.87;;;;;;;-8.61;62.35;100128.13;5017603;28;20096;-67
2021/12/29 01:06:15;;;;;;;;;;;;;;;-8.55;62.39;100126.75;5028407;28;20057;-67
2021/12/29 01:08:41;;;;;;;49.40;18.50;;;;;;;-8.51;62.08;100127.28;5026541;28;20305;-67
2021/12/29 01:11:08;;;;;;;40.90;16.90;;;;;;;-8.68;62.30;100100.50;5014183;28;20049;-68
2021/12/29 01:13:41;;;;;;;44.17;17.07;;;;;;;-8.54;62.22;100120.47;5005205;28;20498;-66
2021/12/29 01:18:35;;;;;;;39.23;15.17;;;;;;;-8.51;61.58;100114.00;5008951;28;20584;-69
2021/12/29 01:21:03;;;;;;;43.22;14.13;;;;;;;-8.48;61.94;100111.06;5034051;28;20041;-69
2021/12/29 01:23:30;;;;;;;41.67;15.97;;;;;;;-8.51;61.68;100114.00;5049617;28;20079;-68
2021/12/29 01:25:56;;;;;;;41.80;14.17;;;;;;;-8.55;62.24;100116.13;5016646;28;20049;-69
2021/12/29 01:28:22;;;;;;;38.43;14.93;;;;;;;-8.61;62.28;100112.22;5041358;28;20361;-69
2021/12/29 01:30:48;;;;;;;45.17;14.40;;;;;;;-8.60;62.39;100113.06;5031577;28;20050;-69
2021/12/29 01:33:15;;;;;;;40.07;14.77;;;;;;;-8.62;62.02;100109.72;5023596;28;20051;-69
2021/12/29 01:35:42;;;;;;;39.80;15.07;;;;;;;-8.56;62.16;100115.28;5022711;28;20041;-68
2021/12/29 01:38:10;;;;;;;38.85;14.50;;;;;;;-8.58;62.29;100098.69;5031092;28;20052;-68
2021/12/29 01:40:37;;;;;;;50.47;16.37;;;;;;;-8.51;62.02;100103.41;5015394;28;20042;-68
2021/12/29 01:43:04;;;;;;;43.63;14.25;;;;;;;-8.46;61.99;100106.44;5014735;28;20176;-69
2021/12/29 01:45:30;;;;;;;47.28;15.82;;;;;;;-8.58;62.06;100095.22;5022976;28;20045;-68
2021/12/29 01:47:59;;;;;;;39.60;13.80;;;;;;;-8.46;61.75;100104.63;5033489;28;20431;-69
2021/12/29 01:50:25;;;;;;;39.00;12.47;;;;;;;-8.41;61.85;100109.50;5020211;28;20066;-69
2021/12/29 01:52:55;;;;;;;57.83;17.07;;;;;;;-8.43;61.59;100101.69;5019485;28;20041;-69
2021/12/29 01:55:27;;;;;;;58.17;19.83;;;;;;;-8.47;61.73;100102.94;5023024;28;20053;-69
2021/12/29 01:57:54;;;;;;;70.67;24.03;;;;;;;-8.53;62.05;100106.22;5035117;28;20073;-68
2021/12/29 02:00:23;;;;;;;113.20;35.88;;;;;;;-8.57;61.77;100118.09;5020523;28;20054;-68
2021/12/29 02:02:52;;;;;;;105.97;36.90;;;;;;;-8.57;62.15;100113.63;5025414;28;20111;-69
2021/12/29 02:05:18;;;;;;;109.30;34.93;;;;;;;-8.52;62.05;100110.53;5024454;28;20073;-69
2021/12/29 02:07:45;;;;;;;69.33;27.17;;;;;;;-8.49;61.93;100107.56;5025419;28;20418;-67
2021/12/29 02:10:14;;;;;;;51.88;20.35;;;;;;;-8.54;62.03;100112.50;5024560;28;20048;-68
2021/12/29 02:12:42;;;;;;;48.87;18.63;;;;;;;-8.52;61.69;100113.19;5031669;28;20178;-69
2021/12/29 02:15:10;;;;;;;52.67;16.97;;;;;;;-8.53;61.92;100102.72;5031155;28;20149;-67
2021/12/29 02:17:37;;;;;;;59.03;16.50;;;;;;;-8.52;61.75;100105.22;5033628;28;20501;-69
2021/12/29 02:20:06;;;;;;;51.10;16.90;;;;;;;-8.45;61.56;100111.59;5029290;28;20132;-68
2021/12/29 02:22:41;;;;;;;52.60;15.70;;;;;;;-8.44;61.71;100107.13;5018354;28;20050;-68
2021/12/29 02:27:46;;;;;;;56.17;16.85;;;;;;;-8.35;60.86;100116.06;5013632;28;20161;-68
2021/12/29 02:30:12;;;;;;;52.22;17.02;;;;;;;-8.34;61.19;100107.09;5023548;28;20048;-67
2021/12/29 02:32:39;;;;;;;49.97;16.67;;;;;;;-8.25;60.67;100119.53;5014134;28;20049;-68
2021/12/29 02:35:08;;;;;;;47.47;15.43;;;;;;;-8.27;60.47;100114.34;5015469;28;20050;-67
2021/12/29 02:37:34;;;;;;;52.40;15.20;;;;;;;-8.24;60.62;100118.53;5020130;28;20051;-67
2021/12/29 02:40:00;;;;;;;45.37;14.97;;;;;;;-8.27;60.11;100119.66;5019432;28;20391;-67
2021/12/29 02:42:30;;;;;;;52.23;15.03;;;;;;;-8.30;60.34;100119.09;5018404;28;20065;-70
2021/12/29 02:45:01;;;;;;;47.67;15.30;;;;;;;-8.28;60.37;100110.03;5012107;28;20716;-67
2021/12/29 02:47:30;;;;;;;42.80;14.83;;;;;;;-8.36;60.08;100091.31;5019349;28;20498;-69
2021/12/29 02:49:56;;;;;;;45.15;14.85;;;;;;;-8.28;59.70;100107.38;5028347;28;20064;-69
2021/12/29 02:52:25;;;;;;;43.43;16.47;;;;;;;-8.32;59.69;100107.78;5019830;28;20093;-70
2021/12/29 02:54:51;;;;;;;46.20;15.77;;;;;;;-8.33;59.79;100103.47;5022003;28;20049;-69
2021/12/29 02:57:17;;;;;;;48.00;16.93;;;;;;;-8.36;59.89;100109.06;5021963;28;20072;-68
2021/12/29 02:59:44;;;;;;;46.03;15.50;;;;;;;-8.40;60.13;100112.03;5018577;28;20053;-69
2021/12/29 03:02:10;;;;;;;48.83;15.87;;;;;;;-8.42;59.99;100105.19;5018622;28;20128;-70
2021/12/29 03:04:36;;;;;;;50.43;17.23;;;;;;;-8.39;59.50;100104.88;5018004;28;20046;-70
2021/12/29 03:07:03;;;;;;;46.47;14.23;;;;;;;-8.41;59.85;100105.03;5026241;28;20073;-70
2021/12/29 03:09:31;;;;;;;47.70;14.55;;;;;;;-8.43;59.77;100103.50;5025419;28;20085;-69
2021/12/29 03:11:58;;;;;;;50.83;16.10;;;;;;;-8.46;59.95;100099.31;5026938;28;20042;-69
2021/12/29 03:14:25;;;;;;;51.88;17.13;;;;;;;-8.51;59.38;100088.34;5042066;28;20569;-69
2021/12/29 03:16:52;;;;;;;40.72;13.65;;;;;;;-8.46;59.58;100098.50;5017907;28;20136;-68
2021/12/29 03:19:18;;;;;;;38.95;14.18;;;;;;;-8.46;59.56;100094.00;5012895;28;20538;-69
2021/12/29 03:21:45;;;;;;;43.90;15.77;;;;;;;-8.49;59.63;100096.13;5020519;28;20506;-69
2021/12/29 03:24:14;;;;;;;48.73;15.47;;;;;;;-8.50;59.24;100102.44;5029905;28;20049;-69
2021/12/29 03:26:42;;;;;;;51.33;16.17;;;;;;;-8.47;59.18;100095.00;5027246;28;20514;-68
2021/12/29 03:29:08;;;;;;;51.92;15.57;;;;;;;-8.49;59.47;100096.94;5016599;28;20474;-68
2021/12/29 03:31:37;;;;;;;44.87;15.00;;;;;;;-8.51;59.21;100088.34;5022775;28;20050;-71
2021/12/29 03:34:05;;;;;;;45.47;14.83;;;;;;;-8.52;59.08;100101.72;5018012;28;20458;-69
2021/12/29 03:36:31;;;;;;;41.10;15.20;;;;;;;-8.60;59.08;100103.28;5031252;28;20049;-69
2021/12/29 03:38:57;;;;;;;46.93;15.20;;;;;;;-8.59;59.06;100102.31;5018519;28;20497;-69
2021/12/29 03:41:24;;;;;;;42.03;14.37;;;;;;;-8.62;58.73;100099.94;5011840;28;20046;-69
2021/12/29 03:43:52;;;;;;;42.37;15.37;;;;;;;-8.60;58.74;100110.41;5019435;28;20054;-69
2021/12/29 03:46:19;;;;;;;;;;;;;;;-8.64;58.90;100099.25;5012815;28;20056;-69
2021/12/29 03:48:47;;;;;;;38.25;13.00;;;;;;;-8.59;59.03;100089.06;5011732;28;19980;-68
2021/12/29 03:51:13;;;;;;;;;;;;;;;-8.56;58.65;100088.75;5037369;28;20107;-70
2021/12/29 03:53:40;;;;;;;30.77;12.43;;;;;;;-8.60;58.45;100086.53;5025889;28;20419;-69
2021/12/29 03:56:06;;;;;;;36.57;11.80;;;;;;;-8.64;58.95;100082.50;5032790;28;20498;-70
2021/12/29 03:58:33;;;;;;;35.80;12.75;;;;;;;-8.59;58.95;100096.16;5030230;28;20132;-69
2021/12/29 04:01:04;;;;;;;30.03;11.40;;;;;;;-8.69;58.97;100078.47;5023453;28;20073;-70
2021/12/29 04:03:31;;;;;;;37.30;12.87;;;;;;;-8.69;58.81;100072.31;5017338;28;20045;-69
2021/12/29 04:05:56;;;;;;;35.17;12.57;;;;;;;-8.62;58.81;100081.38;5026825;28;20136;-70
2021/12/29 04:08:26;;;;;;;33.53;11.60;;;;;;;-8.63;58.40;100087.66;5028228;28;20057;-70
2021/12/29 04:10:52;;;;;;;35.17;12.13;;;;;;;-8.64;58.17;100087.81;5019578;28;20247;-70
2021/12/29 04:13:18;;;;;;;32.07;11.70;;;;;;;-8.71;58.54;100085.72;5023002;28;20057;-70
2021/12/29 04:15:44;;;;;;;33.77;11.37;;;;;;;-8.70;58.61;100086.56;5036733;28;20094;-68
2021/12/29 04:18:17;;;;;;;32.73;11.97;;;;;;;-8.73;58.40;100082.38;5023468;28;20137;-69
2021/12/29 04:20:57;;;;;;;33.27;11.40;;;;;;;-8.72;58.61;100078.75;5015098;28;20045;-69
2021/12/29 04:23:28;;;;;;;31.83;10.80;;;;;;;-8.80;59.31;100081.28;4994358;28;20421;-68
2021/12/29 04:25:55;;;;;;;29.97;10.57;;;;;;;-8.81;59.55;100078.78;5019271;28;20571;-69
2021/12/29 04:28:25;;;;;;;34.47;11.27;;;;;;;-8.70;59.29;100068.84;5017809;28;20052;-68
2021/12/29 04:30:53;;;;;;;40.77;13.03;;;;;;;-8.61;58.81;100077.75;5009648;28;20140;-68
2021/12/29 04:33:22;;;;;;;41.67;13.83;;;;;;;-8.61;58.93;100064.50;5015217;28;20402;-69
2021/12/29 04:35:48;;;;;;;45.13;14.27;;;;;;;-8.59;58.31;100059.88;5017620;28;20052;-70
2021/12/29 04:38:15;;;;;;;52.33;16.53;;;;;;;-8.53;58.14;100066.44;5023405;28;20561;-70
2021/12/29 04:40:42;;;;;;;50.93;15.20;;;;;;;-8.55;58.16;100071.03;5018318;28;20077;-70
2021/12/29 04:43:08;;;;;;;56.00;16.27;;;;;;;-8.58;57.66;100063.38;5019562;28;20041;-69
2021/12/29 04:45:34;;;;;;;54.37;16.50;;;;;;;-8.66;57.80;100058.78;5014505;28;20076;-69
2021/12/29 04:48:01;;;;;;;45.70;16.00;;;;;;;-8.66;57.97;100068.56;5027678;28;20498;-69
2021/12/29 04:50:36;;;;;;;53.87;17.17;;;;;;;-8.69;58.24;100059.91;5017920;28;20474;-70
2021/12/29 04:53:07;;;;;;;47.37;14.57;;;;;;;-8.66;57.95;100055.28;5030932;28;20034;-70
2021/12/29 04:55:33;;;;;;;41.83;15.73;;;;;;;-8.70;58.38;100058.25;5030238;28;20148;-70
2021/12/29 04:58:01;;;;;;;39.57;15.03;;;;;;;-8.79;58.38;100059.09;5024441;28;20049;-69
2021/12/29 05:00:28;;;;;;;;;;;;;;;-8.83;58.78;100060.34;5030180;28;20072;-69
2021/12/29 05:02:56;;;;;;;39.40;14.07;;;;;;;-8.87;59.25;100067.75;5028470;28;19929;-70
2021/12/29 05:10:46;;;;;;;53.83;16.33;;;;;;;-8.98;59.28;100058.13;5030244;28;20057;-69
2021/12/29 05:13:21;;;;;;;57.27;18.07;;;;;;;-8.81;58.78;100078.78;5016866;28;20430;-70
2021/12/29 05:15:51;;;;;;;55.67;17.67;;;;;;;-8.79;58.88;100067.03;5024853;28;20139;-69
2021/12/29 05:18:17;;;;;;;53.33;16.83;;;;;;;-8.77;58.71;100067.72;5014811;28;20060;-69
2021/12/29 05:20:43;;;;;;;55.33;17.13;;;;;;;-8.79;58.95;100069.69;5028281;28;20053;-68
2021/12/29 05:23:12;;;;;;;57.25;18.60;;;;;;;-8.77;58.71;100072.22;5014601;28;20053;-68
2021/12/29 05:25:39;;;;;;;63.90;19.57;;;;;;;-8.78;58.77;100073.19;5023214;28;20041;-69
2021/12/29 05:28:23;;;;;;;64.70;19.27;;;;;;;-8.89;58.93;100071.53;5027803;28;20344;-70
2021/12/29 05:30:51;;;;;;;58.70;21.00;;;;;;;-8.96;59.18;100068.59;5041406;28;20042;-69
2021/12/29 05:33:18;;;;;;;55.55;18.92;;;;;;;-8.89;58.98;100067.06;5014222;28;20075;-70
2021/12/29 05:35:44;;;;;;;55.97;19.27;;;;;;;-8.94;59.25;100065.78;5026213;28;20049;-70
2021/12/29 05:38:12;;;;;;;61.30;18.97;;;;;;;-8.92;58.71;100059.38;5020604;28;20140;-70
2021/12/29 05:40:45;;;;;;;59.25;18.73;;;;;;;-8.92;59.22;100063.84;5022403;28;20104;-69
2021/12/29 05:43:32;;;;;;;52.00;17.23;;;;;;;-8.98;59.26;100063.44;5020179;28;20058;-70
2021/12/29 05:46:09;;;;;;;47.97;17.35;;;;;;;-9.02;59.33;100070.00;5026155;28;20053;-69
2021/12/29 05:48:45;;;;;;;57.55;18.02;;;;;;;-8.99;59.18;100061.75;5037297;28;20144;-69
2021/12/29 05:51:15;;;;;;;55.43;18.13;;;;;;;-8.91;58.91;100069.00;4998559;28;20073;-71
2021/12/29 05:53:44;;;;;;;49.17;17.33;;;;;;;-8.93;58.64;100065.66;5028558;28;20080;-70
2021/12/29 05:56:11;;;;;;;57.77;18.10;;;;;;;-8.99;58.98;100068.88;5015775;28;20045;-70
2021/12/29 05:58:38;;;;;;;47.73;17.57;;;;;;;-8.99;58.72;100068.88;5030115;28;20589;-69
2021/12/29 06:01:05;;;;;;;46.60;16.92;;;;;;;-9.00;58.71;100075.16;5025105;28;20072;-69
2021/12/29 06:03:31;;;;;;;52.35;18.23;;;;;;;-9.04;58.35;100069.31;5023116;28;20049;-69
2021/12/29 06:05:57;;;;;;;52.13;17.97;;;;;;;-8.99;58.19;100072.38;5022031;28;20362;-70
2021/12/29 06:08:24;;;;;;;50.33;17.17;;;;;;;-8.99;58.23;100085.63;5015226;28;20046;-71
2021/12/29 06:10:51;;;;;;;44.73;16.53;;;;;;;-8.97;58.12;100074.88;5009706;28;20514;-70
2021/12/29 06:13:18;;;;;;;44.50;15.77;;;;;;;-9.01;57.65;100084.94;5019447;28;20123;-69
2021/12/29 06:15:47;;;;;;;54.47;17.73;;;;;;;-9.02;57.51;100066.50;5010385;28;20037;-67
2021/12/29 06:18:16;;;;;;;53.17;16.53;;;;;;;-8.99;57.60;100069.72;5025062;28;20073;-69
2021/12/29 06:20:43;;;;;;;56.93;17.67;;;;;;;-8.84;56.95;100071.94;5012319;28;20554;-69
2021/12/29 06:23:12;;;;;;;59.40;17.77;;;;;;;-8.87;56.98;100082.81;5021323;28;20188;-70
2021/12/29 06:25:41;;;;;;;45.57;17.03;;;;;;;-8.91;57.36;100076.97;5024409;28;20529;-69
2021/12/29 06:28:09;;;;;;;48.93;17.83;;;;;;;-8.88;57.37;100081.16;5027848;28;20042;-71
2021/12/29 06:30:35;;;;;;;49.97;17.17;;;;;;;-8.95;57.50;100075.59;5038531;28;20065;-70
2021/12/29 06:33:02;;;;;;;50.77;17.33;;;;;;;-8.91;57.49;100074.31;5038694;28;20547;-71
2021/12/29 06:35:28;;;;;;;55.57;18.10;;;;;;;-8.84;57.68;100077.25;5024808;28;20053;-71
2021/12/29 06:37:54;;;;;;;50.60;16.67;;;;;;;-8.76;57.24;100081.84;5022421;28;20100;-69
2021/12/29 06:40:20;;;;;;;55.50;19.53;;;;;;;-8.73;56.88;100082.38;5025814;28;20049;-69
2021/12/29 06:42:46;;;;;;;62.10;18.77;;;;;;;-8.69;56.91;100089.06;5032313;28;20219;-70
2021/12/29 06:45:14;;;;;;;49.43;18.43;;;;;;;-8.67;56.98;100086.25;5027522;28;20163;-71
2021/12/29 06:47:40;;;;;;;54.17;18.73;;;;;;;-8.64;56.84;100093.09;5030258;28;20081;-69
2021/12/29 06:50:07;;;;;;;47.93;18.50;;;;;;;-8.59;56.80;100083.75;5020319;28;20441;-68
2021/12/29 06:52:33;;;;;;;54.50;18.35;;;;;;;-8.53;56.54;100089.44;5010192;28;20228;-69
2021/12/29 06:55:00;;;;;;;58.70;18.73;;;;;;;-8.51;56.70;100084.84;5016720;28;20072;-68
2021/12/29 06:57:27;;;;;;;55.25;16.67;;;;;;;-8.60;56.58;100086.53;5027145;28;20060;-70
2021/12/29 06:59:53;;;;;;;57.23;18.20;;;;;;;-8.61;56.50;100075.09;5041752;28;20053;-68
2021/12/29 07:02:21;;;;;;;54.77;18.17;;;;;;;-8.68;56.85;100066.03;5012757;28;20044;-70
2021/12/29 07:04:47;;;;;;;53.25;18.80;;;;;;;-8.64;56.76;100071.91;4995149;28;20522;-70
2021/12/29 07:07:13;;;;;;;62.23;19.63;;;;;;;-8.83;56.40;100058.53;5021703;28;20041;-72
2021/12/29 07:09:39;;;;;;;55.53;18.83;;;;;;;-8.63;56.26;100071.75;5010788;28;20458;-70
2021/12/29 07:12:06;;;;;;;57.67;20.00;;;;;;;-8.62;56.35;100073.44;5026606;28;20045;-69
2021/12/29 07:14:33;;;;;;;55.25;19.08;;;;;;;-8.65;56.27;100067.56;5028804;28;20050;-68
2021/12/29 07:16:59;;;;;;;68.03;22.37;;;;;;;-8.57;56.20;100079.13;5022882;28;20089;-70
2021/12/29 07:19:26;;;;;;;58.60;20.67;;;;;;;-8.55;55.72;100076.34;5018462;28;20148;-70
2021/12/29 07:21:52;;;;;;;65.35;20.30;;;;;;;-8.60;55.62;100078.56;5014055;28;20052;-69
2021/12/29 07:24:18;;;;;;;61.50;22.47;;;;;;;-8.58;55.83;100077.47;5017548;28;20080;-67
2021/12/29 07:26:46;;;;;;;68.20;23.63;;;;;;;-8.48;55.67;100084.53;5025056;28;20052;-68
2021/12/29 07:29:12;;;;;;;68.03;20.83;;;;;;;-8.49;55.45;100080.22;5019518;28;20523;-68
2021/12/29 07:31:38;;;;;;;59.60;20.90;;;;;;;-8.48;55.97;100073.94;5010952;28;20053;-68
2021/12/29 07:34:04;;;;;;;67.73;20.87;;;;;;;-8.38;55.24;100065.94;5015135;28;20159;-67
2021/12/29 07:36:32;;;;;;;55.47;19.53;;;;;;;-8.33;55.13;100064.53;5019970;28;20050;-69
2021/12/29 07:38:58;;;;;;;66.33;23.53;;;;;;;-8.29;54.86;100065.03;5028428;28;20147;-67
2021/12/29 07:41:25;;;;;;;72.43;22.33;;;;;;;-8.30;54.94;100060.72;5022241;28;20495;-68
2021/12/29 07:43:51;;;;;;;71.73;22.37;;;;;;;-8.35;55.28;100061.19;5024342;28;20045;-69
2021/12/29 07:46:18;;;;;;;76.03;23.67;;;;;;;-8.41;54.92;100059.94;5027300;28;20077;-68
2021/12/29 07:48:44;;;;;;;66.80;21.90;;;;;;;-8.44;54.93;100059.38;5029428;28;20091;-68
2021/12/29 07:51:10;;;;;;;68.83;20.70;;;;;;;-8.44;55.01;100062.03;5014941;28;20529;-68
2021/12/29 07:53:38;;;;;;;65.50;22.20;;;;;;;-8.46;54.98;100056.06;5019777;28;20048;-68
2021/12/29 07:56:06;;;;;;;68.67;21.70;;;;;;;-8.51;55.12;100037.94;5027151;28;20443;-68
2021/12/29 07:58:33;;;;;;;61.60;19.60;;;;;;;-8.45;54.90;100055.06;5025257;28;20045;-67
2021/12/29 08:00:59;;;;;;;68.38;21.98;;;;;;;-8.43;55.07;100048.66;5020421;28;20046;-67
2021/12/29 08:03:25;;;;;;;66.63;20.93;;;;;;;-8.35;54.60;100052.38;5012714;28;20789;-67
2021/12/29 08:05:51;;;;;;;64.43;20.37;;;;;;;-8.34;54.59;100043.44;5017803;28;20088;-70
2021/12/29 08:08:17;;;;;;;69.20;21.43;;;;;;;-8.35;54.48;100045.28;5014653;28;20044;-72
2021/12/29 08:10:45;;;;;;;65.20;20.73;;;;;;;-8.39;54.62;100051.81;5012463;28;20057;-67
2021/12/29 08:13:11;;;;;;;63.92;20.70;;;;;;;-8.40;54.48;100044.84;5020491;28;20449;-69
2021/12/29 08:15:37;;;;;;;57.47;19.43;;;;;;;-8.44;54.78;100033.69;5030013;28;20049;-68
2021/12/29 08:18:05;;;;;;;58.73;19.83;;;;;;;-8.34;54.79;100038.13;5011652;28;20049;-67
2021/12/29 08:20:32;;;;;;;;;;;;;;;-8.31;54.83;100035.19;5017928;28;20060;-72
2021/12/29 08:22:59;;;;;;;68.32;20.35;;;;;;;-8.19;54.56;100030.53;5024246;28;19929;-68
2021/12/29 08:25:25;;;;;;;60.17;20.93;;;;;;;-8.05;54.53;100021.25;5011068;28;20053;-69
2021/12/29 08:27:53;;;;;;;61.33;19.83;;;;;;;-7.85;54.25;100021.97;4995789;28;20582;-69
2021/12/29 08:30:19;;;;;;;52.47;19.98;;;;;;;-7.67;54.40;100023.81;5013449;28;20064;-69
2021/12/29 08:32:46;;;;;;;62.60;20.47;;;;;;;-7.47;54.32;100016.53;5018538;28;20046;-68
2021/12/29 08:35:12;;;;;;;60.97;21.13;;;;;;;-7.35;54.00;100012.63;5015562;28;20088;-68
2021/12/29 08:37:39;;;;;;;63.58;20.20;;;;;;;-7.19;54.26;100009.31;5019307;28;20129;-69
2021/12/29 08:40:09;;;;;;;64.65;20.77;;;;;;;-7.04;54.35;100008.75;5006100;28;20550;-69
2021/12/29 08:42:35;;;;;;;70.37;22.57;;;;;;;-7.05;54.44;99997.25;5028996;28;20274;-69
2021/12/29 08:45:04;;;;;;;70.10;23.30;;;;;;;-6.99;54.24;99991.34;5014994;28;20085;-69
2021/12/29 08:47:30;;;;;;;66.30;22.50;;;;;;;-6.89;54.13;100001.88;5026155;28;20494;-69
2021/12/29 08:49:56;;;;;;;76.17;24.17;;;;;;;-6.93;54.00;99995.22;5034816;28;20180;-69
2021/12/29 08:52:22;;;;;;;67.50;22.90;;;;;;;-6.92;54.17;99998.69;5022548;28;20042;-70
2021/12/29 08:54:48;;;;;;;73.03;22.67;;;;;;;-6.88;53.64;100002.69;5045561;28;20045;-68
2021/12/29 08:57:14;;;;;;;81.30;24.50;;;;;;;-6.83;53.55;99997.75;5015972;28;20042;-70
2021/12/29 08:59:40;;;;;;;79.67;25.60;;;;;;;-6.70;53.55;99987.53;5033722;28;20081;-70
2021/12/29 09:02:08;;;;;;;76.57;25.50;;;;;;;-6.52;53.33;99991.97;5032704;28;20054;-70
2021/12/29 09:04:34;;;;;;;83.93;24.33;;;;;;;-6.29;52.73;99983.41;5034258;28;20037;-70
2021/12/29 09:07:02;;;;;;;75.83;24.97;;;;;;;-6.15;52.75;99984.63;5023313;28;20053;-68
2021/12/29 09:09:29;;;;;;;87.70;26.57;;;;;;;-6.18;53.07;99979.63;5019192;28;20544;-69
2021/12/29 09:11:58;;;;;;;102.47;27.33;;;;;;;-6.14;53.03;99989.78;5021569;28;20498;-70
2021/12/29 09:14:25;;;;;;;88.10;25.97;;;;;;;-6.13;52.86;99990.63;5030429;28;20072;-71
2021/12/29 09:16:51;;;;;;;97.37;26.70;;;;;;;-6.19;52.72;99984.13;5016186;28;20119;-70
2021/12/29 09:19:18;;;;;;;84.27;24.53;;;;;;;-6.21;52.56;99971.94;5030054;28;20054;-68
2021/12/29 09:21:44;;;;;;;80.93;26.63;;;;;;;-6.34;52.46;99980.41;5019227;28;20037;-69
2021/12/29 09:24:11;;;;;;;95.03;26.67;;;;;;;-6.39;52.26;99972.06;5021090;28;20049;-69
2021/12/29 09:26:38;;;;;;;93.80;26.63;;;;;;;-6.39;52.37;99985.38;5015792;28;20140;-70
2021/12/29 09:29:05;;;;;;;103.63;28.80;;;;;;;-6.41;52.32;99975.69;5036350;28;20061;-69
2021/12/29 09:31:32;;;;;;;96.57;29.15;;;;;;;-6.35;51.69;99973.41;5038519;28;20033;-69
2021/12/29 09:33:58;;;;;;;87.93;27.17;;;;;;;-6.34;51.87;99970.56;5032460;28;20080;-70
2021/12/29 09:36:26;;;;;;;106.40;28.83;;;;;;;-6.30;51.50;99963.09;5014326;28;20056;-70
2021/12/29 09:38:52;;;;;;;104.50;30.50;;;;;;;-6.19;51.56;99967.28;5016266;28;20053;-69
2021/12/29 09:41:19;;;;;;;100.53;29.00;;;;;;;-6.08;51.19;99956.34;5038888;28;20433;-68
2021/12/29 09:43:46;;;;;;;81.60;26.97;;;;;;;-5.93;50.89;99950.38;5030570;28;20633;-71
2021/12/29 09:46:13;;;;;;;90.85;27.02;;;;;;;-5.73;50.60;99948.25;5027723;28;20045;-71
2021/12/29 09:48:40;;;;;;;88.03;26.80;;;;;;;-5.58;50.31;99957.25;5043756;28;20401;-71
2021/12/29 09:51:08;;;;;;;94.63;27.75;;;;;;;-5.53;49.96;99943.44;5027920;28;20061;-71
2021/12/29 09:53:36;;;;;;;91.47;27.53;;;;;;;-5.47;49.99;99948.09;5032459;28;20049;-71
2021/12/29 09:56:03;;;;;;;92.57;27.10;;;;;;;-5.43;50.08;99938.75;5009859;28;20084;-71
2021/12/29 09:58:29;;;;;;;91.30;26.90;;;;;;;-5.14;49.78;99936.59;5027260;28;20057;-70
2021/12/29 10:00:59;;;;;;;85.57;25.97;;;;;;;-4.85;49.38;99935.19;5032291;28;20854;-72
2021/12/29 10:03:28;;;;;;;90.17;27.40;;;;;;;-4.71;48.82;99929.16;5029990;28;20041;-71
2021/12/29 10:05:57;;;;;;;97.87;26.47;;;;;;;-4.68;48.56;99927.13;5027495;28;20049;-70
2021/12/29 10:08:26;;;;;;;104.00;27.60;;;;;;;-4.55;48.30;99930.09;5027880;28;20049;-72
2021/12/29 10:10:56;;;;;;;96.70;27.60;;;;;;;-4.11;47.65;99918.06;5011869;28;20143;-68
2021/12/29 10:13:22;;;;;;;78.33;25.50;;;;;;;-3.54;46.57;99907.97;5030158;28;20045;-69
2021/12/29 10:15:59;;;;;;;73.50;26.03;;;;;;;-2.90;45.45;99895.19;5044590;28;20041;-74
2021/12/29 10:18:27;;;;;;;86.57;28.97;;;;;;;-2.13;44.60;99917.16;5012269;28;20426;-71
2021/12/29 10:20:56;;;;;;;83.47;27.90;;;;;;;-1.72;44.10;99919.25;5031671;28;20510;-69
2021/12/29 10:23:27;;;;;;;96.90;30.10;;;;;;;-1.35;43.44;99904.94;5021538;28;20514;-70
2021/12/29 10:26:06;;;;;;;89.67;29.33;;;;;;;-0.97;43.17;99904.63;5041335;28;20045;-71
2021/12/29 10:28:33;;;;;;;99.43;31.33;;;;;;;-0.41;42.47;99902.84;5021282;28;20054;-71
2021/12/29 10:31:03;;;;;;;92.38;30.73;;;;;;;-0.28;41.91;99885.97;5012127;28;20096;-69
2021/12/29 10:33:36;;;;;;;93.82;29.95;;;;;;;-0.47;41.84;99893.75;5011905;28;20570;-70
2021/12/29 10:36:21;;;;;;;105.07;31.90;;;;;;;-0.50;41.54;99898.69;5015983;28;20060;-69
2021/12/29 10:38:51;;;;;;;87.15;30.95;;;;;;;-0.51;41.53;99895.16;5026738;28;20045;-69
2021/12/29 10:41:18;;;;;;;92.47;31.33;;;;;;;-0.20;40.49;99887.63;5016767;28;20049;-67
2021/12/29 10:43:54;;;;;;;94.28;30.38;;;;;;;0.45;39.29;99895.22;5013606;28;20112;-66
2021/12/29 10:46:21;;;;;;;85.63;28.17;;;;;;;0.72;38.75;99883.63;5021841;28;20414;-67
2021/12/29 10:48:49;;;;;;;93.47;28.88;;;;;;;1.12;38.00;99873.63;5018575;28;20507;-67
2021/12/29 10:51:16;;;;;;;74.82;28.13;;;;;;;1.45;37.62;99881.84;5026421;28;20054;-68
2021/12/29 10:53:42;;;;;;;84.25;28.80;;;;;;;1.32;37.42;99878.13;5013240;28;20109;-67
2021/12/29 10:56:21;;;;;;;78.93;27.05;;;;;;;1.61;36.91;99867.88;5018738;28;20045;-69
2021/12/29 10:58:47;;;;;;;75.32;27.75;;;;;;;1.71;35.87;99867.41;5014818;28;20052;-67
2021/12/29 11:01:16;;;;;;;78.18;29.77;;;;;;;1.62;36.40;99863.31;5020730;28;20548;-67
2021/12/29 11:03:45;;;;;;;70.78;27.67;;;;;;;1.65;36.11;99862.91;5014703;28;20143;-68
2021/12/29 11:06:13;;;;;;;79.07;28.88;;;;;;;1.44;36.19;99862.16;5024186;28;20042;-69
2021/12/29 11:08:47;;;;;;;78.60;28.30;;;;;;;1.22;35.58;99858.91;5027389;28;20049;-70
2021/12/29 11:11:13;;;;;;;71.95;26.85;;;;;;;1.33;36.03;99849.34;5028485;28;20543;-67
2021/12/29 11:13:41;;;;;;;67.28;26.60;;;;;;;1.39;35.65;99851.16;5019418;28;20510;-69
2021/12/29 11:16:09;;;;;;;77.85;27.85;;;;;;;1.15;36.20;99844.63;5021263;28;20046;-69
2021/12/29 11:18:49;;;;;;;72.90;27.50;;;;;;;0.60;36.74;99845.75;5015398;28;20045;-68
2021/12/29 11:21:23;;;;;;;73.15;27.75;;;;;;;0.34;37.45;99848.25;5018884;28;20046;-67
2021/12/29 11:23:49;;;;;;;76.78;30.00;;;;;;;-0.05;37.56;99841.75;5014146;28;20045;-68
2021/12/29 11:26:15;;;;;;;74.63;27.45;;;;;;;-0.38;37.65;99837.97;5027080;28;20105;-66